world map with WVB marked

WVB - Airport

This information may not be accurate or current and is not valid for navigation or flight planning. No warranty of fitness for any purpose is made or implied.

flag of Namibia

Donate via PayPal

Additional information is available on the NEW Great Circle Mapper

Location
City:  Walvis Bay, Erongo, Namibia
Name:Rooikop Airport
ICAO / IATA:FYWB / WVB

Details
Type:Airport (Aerodrome, Airfield)
Use:Public/Civil
Latitude:22°58'48"S (-22.979888)
Longitude:14°38'43"E (14.645331)
Datum:other
Elevation:299 ft (91 m)
Runways:1
Longest:7001 × 98 ft (2134 × 30 m)

Time
Timezone:UTC+1 (DST+2)

Weather
METAR:FYWB  041400Z 26011KT CAVOK 26/13 Q1011
TAF:FYWB  032200Z 0400/0500 31005KT CAVOK BECMG 0407/0409 24007KT

Related Locations
Nearby:
Farthest:PHHF: 12352 mi / 19878 km
Tern Island [French Frigate Shoals Airport], HI, US

Find:

   beyond  
but within

Other Information
Maps:
Links:
Sources:

  


 


Great Circle Mapper   Great Circle Mapper
Great Circle Mapper FAQ   Great Circle Mapper FAQ
  Karl's Home Page
KLSē   KLSē Home
   GC on Facebook
Airlines of the World   Airlines of the World
Donate via PayPal


Copyright © 2004-2019, Karl L. Swartz. All rights reserved.
All trademarks mentioned herein belong to their respective owners.

Please see credits for attribution and copyright information.

Karl Swartz <karl@kls2.com>
  Powered by FreeBSD
Valid HTML 4.01!
Labeled with ICRA
hCard Microformat
Geo Microformat